Time;durP1;ratioP1;P1;durP2;ratioP2;P2;SDS_P1;SDS_P2;PMS_P1;PMS_P2;Temp;Humidity;BMP_temperature;BMP_pressure;BME280_temperature;BME280_humidity;BME280_pressure;Samples;Min_cycle;Max_cycle;Signal;HPM_P1;HPM_P2
2023/04/09 00:00:11;;;;;;;15.70;13.15;;;;;;;;;;5056654;23;20057;-54
2023/04/09 00:02:40;;;;;;;13.75;11.57;;;;;;;;;;5074387;22;20056;-54
2023/04/09 00:05:06;;;;;;;15.45;12.95;;;;;;;;;;5074656;22;21426;-61
2023/04/09 00:07:31;;;;;;;20.52;16.02;;;;;;;;;;5083178;23;20056;-62
2023/04/09 00:09:56;;;;;;;23.10;17.27;;;;;;;;;;5074034;28;20115;-54
2023/04/09 00:12:22;;;;;;;20.33;16.08;;;;;;;;;;5073730;28;20045;-57
2023/04/09 00:14:48;;;;;;;22.13;16.52;;;;;;;;;;5073940;28;20064;-53
2023/04/09 00:17:14;;;;;;;23.88;17.33;;;;;;;;;;5073939;28;20492;-54
2023/04/09 00:19:40;;;;;;;23.42;16.23;;;;;;;;;;5055706;28;20111;-54
2023/04/09 00:22:05;;;;;;;19.65;15.15;;;;;;;;;;5073616;28;20036;-54
2023/04/09 00:24:30;;;;;;;18.33;14.32;;;;;;;;;;5073560;28;20086;-54
2023/04/09 00:26:56;;;;;;;23.55;15.43;;;;;;;;;;5073573;28;20431;-54
2023/04/09 00:29:21;;;;;;;23.75;16.95;;;;;;;;;;5055620;28;20036;-54
2023/04/09 00:31:47;;;;;;;24.20;15.90;;;;;;;;;;5056319;28;20048;-54
2023/04/09 00:34:12;;;;;;;20.83;15.60;;;;;;;;;;5073745;28;20055;-54
2023/04/09 00:36:37;;;;;;;18.90;14.43;;;;;;;;;;5073458;28;20029;-54
2023/04/09 00:39:03;;;;;;;13.10;11.75;;;;;;;;;;5073452;28;20024;-53
2023/04/09 00:41:28;;;;;;;19.17;13.65;;;;;;;;;;5073398;28;20394;-54
2023/04/09 00:43:55;;;;;;;24.85;16.02;;;;;;;;;;5073691;28;20040;-54
2023/04/09 00:46:20;;;;;;;13.77;10.70;;;;;;;;;;5038831;28;20522;-53
2023/04/09 00:48:45;;;;;;;16.60;13.00;;;;;;;;;;5073352;28;20068;-53
2023/04/09 00:51:11;;;;;;;14.63;12.48;;;;;;;;;;5073540;28;20036;-53
2023/04/09 00:53:36;;;;;;;11.80;10.52;;;;;;;;;;5073548;28;20052;-54
2023/04/09 00:56:01;;;;;;;15.52;12.30;;;;;;;;;;5073337;28;20497;-54
2023/04/09 00:58:27;;;;;;;19.92;14.23;;;;;;;;;;5055318;28;20478;-53
2023/04/09 01:00:53;;;;;;;28.08;16.73;;;;;;;;;;5073474;28;20037;-54
2023/04/09 01:03:18;;;;;;;44.75;21.40;;;;;;;;;;5055336;28;20493;-54
2023/04/09 01:05:53;;;;;;;47.88;21.45;;;;;;;;;;5073164;28;20115;-53
2023/04/09 01:08:34;;;;;;;46.50;20.70;;;;;;;;;;5055037;28;20394;-54
2023/04/09 01:11:10;;;;;;;45.38;20.77;;;;;;;;;;5073093;28;20025;-53
2023/04/09 01:13:46;;;;;;;45.85;21.17;;;;;;;;;;5055162;28;20530;-54
2023/04/09 01:16:14;;;;;;;48.70;21.52;;;;;;;;;;5055129;28;20029;-54
2023/04/09 01:18:45;;;;;;;43.55;22.30;;;;;;;;;;5055156;28;20458;-54
2023/04/09 01:21:13;;;;;;;38.78;19.27;;;;;;;;;;5055074;28;20071;-54
2023/04/09 01:24:01;;;;;;;38.10;19.10;;;;;;;;;;5073851;28;20398;-54
2023/04/09 01:26:39;;;;;;;21.35;14.52;;;;;;;;;;5076948;28;20032;-53
2023/04/09 01:29:06;;;;;;;20.58;14.70;;;;;;;;;;5059548;28;20044;-54
2023/04/09 01:31:35;;;;;;;24.55;17.40;;;;;;;;;;5058569;28;20398;-54
2023/04/09 01:34:01;;;;;;;22.92;15.70;;;;;;;;;;5076831;28;20025;-54
2023/04/09 01:36:27;;;;;;;24.73;16.08;;;;;;;;;;5076546;28;20493;-54
2023/04/09 01:38:54;;;;;;;26.65;16.80;;;;;;;;;;5076489;28;20013;-54
2023/04/09 01:41:21;;;;;;;23.35;16.20;;;;;;;;;;5058481;28;20028;-54
2023/04/09 01:43:48;;;;;;;22.27;15.65;;;;;;;;;;5076663;28;20042;-54
2023/04/09 01:46:14;;;;;;;19.48;14.93;;;;;;;;;;5076659;28;20454;-54
2023/04/09 01:48:39;;;;;;;19.42;13.82;;;;;;;;;;5058404;28;20641;-54
2023/04/09 01:51:05;;;;;;;19.02;14.63;;;;;;;;;;5076234;28;20060;-53
2023/04/09 01:53:30;;;;;;;20.60;14.98;;;;;;;;;;5076519;28;20099;-53
2023/04/09 01:55:57;;;;;;;20.38;15.27;;;;;;;;;;5076229;28;20028;-54
2023/04/09 01:58:23;;;;;;;17.95;14.45;;;;;;;;;;5041612;28;20020;-53
2023/04/09 02:00:50;;;;;;;23.13;14.57;;;;;;;;;;5058059;28;20119;-53
2023/04/09 02:03:19;;;;;;;19.02;13.32;;;;;;;;;;5076372;28;20429;-53
2023/04/09 02:05:49;;;;;;;22.15;13.85;;;;;;;;;;5057910;28;20476;-54
2023/04/09 02:08:17;;;;;;;20.52;14.10;;;;;;;;;;5075837;28;20028;-53
2023/04/09 02:10:43;;;;;;;21.50;14.65;;;;;;;;;;5076198;28;20051;-54
2023/04/09 02:13:12;;;;;;;20.20;14.88;;;;;;;;;;5075793;28;20035;-53
2023/04/09 02:15:38;;;;;;;22.83;14.70;;;;;;;;;;5076090;28;20108;-54
2023/04/09 02:18:03;;;;;;;24.65;14.30;;;;;;;;;;5075820;28;20487;-53
2023/04/09 02:20:29;;;;;;;27.95;15.50;;;;;;;;;;5057774;28;20024;-54
2023/04/09 02:22:55;;;;;;;26.42;15.98;;;;;;;;;;5076275;28;20421;-54
2023/04/09 02:25:21;;;;;;;37.83;17.77;;;;;;;;;;5057675;28;20028;-53
2023/04/09 02:27:46;;;;;;;40.70;19.17;;;;;;;;;;5057630;28;20093;-54
2023/04/09 02:30:11;;;;;;;37.95;20.25;;;;;;;;;;5075842;28;20041;-53
2023/04/09 02:32:37;;;;;;;36.72;19.40;;;;;;;;;;5057705;28;20176;-53
2023/04/09 02:35:03;;;;;;;36.15;19.58;;;;;;;;;;5075425;28;20021;-53
2023/04/09 02:37:28;;;;;;;34.28;18.42;;;;;;;;;;5041045;28;20024;-53
2023/04/09 02:39:53;;;;;;;33.40;18.67;;;;;;;;;;5075650;28;20028;-54
2023/04/09 02:42:19;;;;;;;36.40;18.52;;;;;;;;;;5075294;28;20060;-54
2023/04/09 02:44:45;;;;;;;32.67;18.55;;;;;;;;;;5075245;28;20028;-54
2023/04/09 02:47:12;;;;;;;31.38;17.90;;;;;;;;;;5057561;28;20025;-53
2023/04/09 02:49:37;;;;;;;31.63;17.17;;;;;;;;;;5057497;28;20112;-54
2023/04/09 02:52:03;;;;;;;30.92;16.73;;;;;;;;;;5075290;28;20472;-53
2023/04/09 02:54:28;;;;;;;31.30;17.77;;;;;;;;;;5075042;28;20550;-54
2023/04/09 02:56:53;;;;;;;31.67;18.23;;;;;;;;;;5057060;28;20047;-54
2023/04/09 02:59:19;;;;;;;28.80;17.17;;;;;;;;;;5075474;28;20028;-53
2023/04/09 03:01:44;;;;;;;28.52;17.08;;;;;;;;;;5075176;28;20108;-54
2023/04/09 03:04:10;;;;;;;31.75;17.90;;;;;;;;;;5056931;28;20024;-53
2023/04/09 03:06:35;;;;;;;31.80;18.08;;;;;;;;;;5074893;28;20044;-54
2023/04/09 03:09:00;;;;;;;31.38;18.15;;;;;;;;;;5056875;28;20032;-53
2023/04/09 03:11:26;;;;;;;26.77;17.58;;;;;;;;;;5074624;28;20368;-53
2023/04/09 03:13:51;;;;;;;28.67;18.48;;;;;;;;;;5074899;28;20024;-53
2023/04/09 03:16:17;;;;;;;30.83;18.10;;;;;;;;;;5074866;28;20383;-53
2023/04/09 03:18:42;;;;;;;34.25;18.75;;;;;;;;;;5056671;28;20524;-53
2023/04/09 03:21:08;;;;;;;32.15;17.92;;;;;;;;;;5056825;28;20056;-53
2023/04/09 03:23:36;;;;;;;28.48;17.35;;;;;;;;;;5040608;28;20070;-53
2023/04/09 03:26:04;;;;;;;24.70;16.83;;;;;;;;;;5056747;28;20024;-53
2023/04/09 03:28:34;;;;;;;25.00;16.67;;;;;;;;;;5056443;28;20021;-53
2023/04/09 03:31:00;;;;;;;28.88;18.02;;;;;;;;;;5056592;28;20467;-53
2023/04/09 03:33:26;;;;;;;28.45;17.70;;;;;;;;;;5056637;28;20083;-54
2023/04/09 03:35:53;;;;;;;33.75;19.42;;;;;;;;;;5056341;28;20013;-54
2023/04/09 03:38:38;;;;;;;31.58;20.02;;;;;;;;;;5056512;28;20024;-54
2023/04/09 03:41:09;;;;;;;33.17;19.98;;;;;;;;;;5056262;28;20111;-53
2023/04/09 03:43:35;;;;;;;31.80;19.00;;;;;;;;;;5056190;28;20063;-54
2023/04/09 03:46:01;;;;;;;30.52;19.05;;;;;;;;;;5056216;28;20020;-54
2023/04/09 03:48:26;;;;;;;29.25;18.30;;;;;;;;;;5055694;28;20027;-54
2023/04/09 03:50:53;;;;;;;27.85;17.23;;;;;;;;;;5056292;28;20497;-54
2023/04/09 03:53:26;;;;;;;23.55;16.45;;;;;;;;;;5056386;28;20032;-53
2023/04/09 03:56:00;;;;;;;23.73;15.73;;;;;;;;;;5056261;28;20021;-53
2023/04/09 03:58:27;;;;;;;22.95;15.48;;;;;;;;;;5056213;28;20052;-54
2023/04/09 04:00:53;;;;;;;23.77;15.68;;;;;;;;;;5074176;28;20020;-53
2023/04/09 04:03:33;;;;;;;;;;;;;;;;;;5056386;28;20120;-53
2023/04/09 04:06:32;;;;;;;23.92;15.55;;;;;;;;;;5068948;28;19908;-53
2023/04/09 04:09:23;;;;;;;22.55;15.45;;;;;;;;;;5070612;28;20120;-54
2023/04/09 04:11:55;;;;;;;17.85;13.88;;;;;;;;;;5073618;28;20043;-53
2023/04/09 04:14:23;;;;;;;18.63;14.23;;;;;;;;;;5056061;28;20540;-53
2023/04/09 04:16:54;;;;;;;20.13;15.63;;;;;;;;;;5055745;28;20056;-53
2023/04/09 04:19:25;;;;;;;23.65;16.50;;;;;;;;;;5070985;23;20543;-61
2023/04/09 04:21:51;;;;;;;24.15;17.10;;;;;;;;;;5066392;23;20148;-53
2023/04/09 04:24:16;;;;;;;24.58;17.42;;;;;;;;;;5071988;23;20490;-61
2023/04/09 04:27:02;;;;;;;22.98;17.30;;;;;;;;;;5078751;23;20060;-60
2023/04/09 04:29:40;;;;;;;24.60;17.15;;;;;;;;;;5069422;23;20060;-61
2023/04/09 04:32:19;;;;;;;22.38;17.27;;;;;;;;;;5012733;28;20124;-53
2023/04/09 04:34:47;;;;;;;25.85;18.13;;;;;;;;;;4996977;28;20049;-54
2023/04/09 04:37:19;;;;;;;23.25;17.88;;;;;;;;;;5013740;28;20026;-54
2023/04/09 04:39:46;;;;;;;25.75;18.63;;;;;;;;;;5012978;28;20037;-54
2023/04/09 04:42:14;;;;;;;26.20;18.42;;;;;;;;;;5012393;28;20080;-54
2023/04/09 04:44:39;;;;;;;28.60;18.85;;;;;;;;;;4996068;28;20026;-54
2023/04/09 04:47:14;;;;;;;29.08;20.67;;;;;;;;;;5013939;28;20060;-53
2023/04/09 04:49:40;;;;;;;45.35;29.58;;;;;;;;;;4995971;28;20026;-54
2023/04/09 04:52:06;;;;;;;39.22;25.50;;;;;;;;;;5012585;28;20026;-53
2023/04/09 04:54:33;;;;;;;37.67;24.60;;;;;;;;;;5012667;28;20030;-55
2023/04/09 04:56:59;;;;;;;52.17;33.85;;;;;;;;;;5012370;28;20018;-54
2023/04/09 04:59:38;;;;;;;36.22;23.45;;;;;;;;;;5014366;28;20014;-53
2023/04/09 05:02:05;;;;;;;30.27;20.35;;;;;;;;;;4999838;28;20061;-54
2023/04/09 05:04:38;;;;;;;28.23;19.70;;;;;;;;;;5016383;28;20461;-53
2023/04/09 05:07:05;;;;;;;28.92;20.30;;;;;;;;;;4999993;28;20025;-54
2023/04/09 05:09:33;;;;;;;27.88;18.60;;;;;;;;;;4999991;28;20081;-53
2023/04/09 05:12:02;;;;;;;24.80;17.45;;;;;;;;;;5015839;28;20076;-54
2023/04/09 05:14:27;;;;;;;25.10;18.48;;;;;;;;;;4999628;28;20081;-54
2023/04/09 05:16:53;;;;;;;27.00;18.75;;;;;;;;;;5017215;28;20056;-54
2023/04/09 05:19:23;;;;;;;36.05;24.73;;;;;;;;;;4999468;28;20490;-54
2023/04/09 05:21:55;;;;;;;34.45;25.33;;;;;;;;;;4999477;28;20381;-54
2023/04/09 05:24:21;;;;;;;36.65;24.70;;;;;;;;;;5016532;28;20026;-54
2023/04/09 05:26:47;;;;;;;33.05;23.90;;;;;;;;;;4999405;28;20522;-54
2023/04/09 05:29:12;;;;;;;32.47;23.02;;;;;;;;;;4999339;28;20117;-53
2023/04/09 05:31:39;;;;;;;28.38;20.83;;;;;;;;;;5016612;28;20041;-54
2023/04/09 05:34:08;;;;;;;27.27;19.55;;;;;;;;;;4999890;28;20029;-54
2023/04/09 05:36:41;;;;;;;26.50;18.48;;;;;;;;;;5015476;28;20063;-55
2023/04/09 05:39:07;;;;;;;22.65;17.25;;;;;;;;;;5000019;28;20029;-54
2023/04/09 05:41:32;;;;;;;24.15;18.23;;;;;;;;;;4999197;28;20411;-53
2023/04/09 05:44:26;;;;;;;22.13;16.52;;;;;;;;;;5015672;28;20030;-54
2023/04/09 05:46:59;;;;;;;20.88;16.52;;;;;;;;;;5015686;28;20064;-54
2023/04/09 05:49:31;;;;;;;27.05;19.85;;;;;;;;;;5015284;28;20040;-54
2023/04/09 05:51:57;;;;;;;21.80;17.42;;;;;;;;;;4998899;28;20064;-54
2023/04/09 05:54:25;;;;;;;21.85;16.33;;;;;;;;;;4998952;28;20036;-53
2023/04/09 05:56:51;;;;;;;19.38;15.68;;;;;;;;;;4998896;28;20117;-54
2023/04/09 05:59:17;;;;;;;20.45;16.08;;;;;;;;;;4998852;28;20029;-53
2023/04/09 06:01:42;;;;;;;20.48;16.08;;;;;;;;;;5016395;28;20380;-54
2023/04/09 06:04:08;;;;;;;20.23;16.15;;;;;;;;;;5016346;28;20400;-54
2023/04/09 06:06:36;;;;;;;22.77;16.63;;;;;;;;;;5016570;28;20380;-54
2023/04/09 06:09:01;;;;;;;25.33;17.80;;;;;;;;;;4998698;28;20030;-54
2023/04/09 06:11:26;;;;;;;24.42;18.17;;;;;;;;;;5015960;28;20029;-53
2023/04/09 06:13:52;;;;;;;41.80;26.35;;;;;;;;;;4998539;28;20460;-53
2023/04/09 06:16:17;;;;;;;31.80;23.08;;;;;;;;;;5014831;28;20111;-53
2023/04/09 06:18:45;;;;;;;27.80;21.25;;;;;;;;;;5014840;28;20022;-53
2023/04/09 06:21:12;;;;;;;25.90;19.83;;;;;;;;;;5015937;28;20065;-54
2023/04/09 06:23:37;;;;;;;24.67;19.13;;;;;;;;;;5016219;28;20104;-54
2023/04/09 06:26:02;;;;;;;23.05;17.85;;;;;;;;;;5015889;28;20500;-54
2023/04/09 06:28:28;;;;;;;24.05;17.17;;;;;;;;;;5016022;28;20113;-53
2023/04/09 06:30:54;;;;;;;22.65;16.77;;;;;;;;;;5015677;28;20045;-53
2023/04/09 06:33:19;;;;;;;24.30;17.90;;;;;;;;;;5015966;28;20070;-53
2023/04/09 06:35:45;;;;;;;25.13;18.70;;;;;;;;;;5016049;28;20061;-53
2023/04/09 06:38:10;;;;;;;27.35;19.13;;;;;;;;;;5015925;28;20029;-53
2023/04/09 06:40:36;;;;;;;26.60;19.13;;;;;;;;;;5015887;28;20030;-53
2023/04/09 06:43:02;;;;;;;24.77;19.13;;;;;;;;;;4998098;28;20042;-54
2023/04/09 06:45:36;;;;;;;32.20;22.67;;;;;;;;;;5014182;28;20096;-53
2023/04/09 06:48:01;;;;;;;33.42;23.25;;;;;;;;;;5015673;28;20396;-53
2023/04/09 06:50:27;;;;;;;29.70;21.38;;;;;;;;;;5015456;28;20037;-54
2023/04/09 06:52:52;;;;;;;29.85;19.65;;;;;;;;;;5016097;28;20570;-54
2023/04/09 06:55:18;;;;;;;23.63;18.30;;;;;;;;;;5015313;28;20109;-54
2023/04/09 06:57:43;;;;;;;26.83;19.25;;;;;;;;;;5015295;28;20054;-53
2023/04/09 07:00:09;;;;;;;24.73;18.17;;;;;;;;;;5015521;28;20034;-53
2023/04/09 07:02:35;;;;;;;26.83;18.92;;;;;;;;;;4998016;28;20120;-53
2023/04/09 07:05:01;;;;;;;25.92;18.60;;;;;;;;;;5015120;28;20084;-53
2023/04/09 07:07:27;;;;;;;27.15;18.35;;;;;;;;;;5015258;28;20044;-53
2023/04/09 07:09:52;;;;;;;25.98;18.50;;;;;;;;;;5015390;28;20026;-54
2023/04/09 07:12:30;;;;;;;24.35;18.45;;;;;;;;;;4997348;28;20483;-54
2023/04/09 07:14:56;;;;;;;24.85;17.73;;;;;;;;;;5015482;28;20384;-53
2023/04/09 07:17:22;;;;;;;24.00;18.27;;;;;;;;;;5014956;28;20030;-54
2023/04/09 07:19:48;;;;;;;24.65;18.48;;;;;;;;;;5014934;28;20054;-53
2023/04/09 07:22:13;;;;;;;25.00;18.05;;;;;;;;;;5014166;28;20029;-54
2023/04/09 07:24:38;;;;;;;25.45;17.52;;;;;;;;;;5015371;28;20038;-53
2023/04/09 07:27:04;;;;;;;22.08;16.88;;;;;;;;;;5014837;28;20054;-53
2023/04/09 07:29:29;;;;;;;22.40;17.15;;;;;;;;;;5014763;28;20480;-53
2023/04/09 07:31:56;;;;;;;27.48;19.10;;;;;;;;;;5014351;28;20135;-53
2023/04/09 07:34:21;;;;;;;27.38;19.75;;;;;;;;;;5014701;28;20054;-53
2023/04/09 07:36:47;;;;;;;25.35;18.23;;;;;;;;;;5015439;28;20054;-53
2023/04/09 07:39:12;;;;;;;25.05;18.27;;;;;;;;;;5014549;28;20033;-53
2023/04/09 07:41:37;;;;;;;27.35;18.48;;;;;;;;;;5013383;28;20124;-54
2023/04/09 07:44:05;;;;;;;26.10;18.10;;;;;;;;;;5015088;28;20017;-53
2023/04/09 07:46:30;;;;;;;25.50;17.92;;;;;;;;;;5015033;28;20121;-54
2023/04/09 07:48:55;;;;;;;25.02;17.33;;;;;;;;;;5013560;28;20099;-53
2023/04/09 07:51:21;;;;;;;26.60;18.25;;;;;;;;;;5014284;28;20029;-53
2023/04/09 07:53:46;;;;;;;21.88;17.08;;;;;;;;;;5015495;28;20022;-53
2023/04/09 07:56:11;;;;;;;20.05;15.82;;;;;;;;;;5014335;28;20053;-54
2023/04/09 07:58:37;;;;;;;26.30;19.33;;;;;;;;;;5014517;28;20033;-53
2023/04/09 08:01:02;;;;;;;24.65;18.10;;;;;;;;;;5014254;28;20032;-53
2023/04/09 08:03:27;;;;;;;25.15;18.38;;;;;;;;;;5014444;28;20026;-54
2023/04/09 08:05:59;;;;;;;23.25;18.00;;;;;;;;;;5014208;28;20076;-54
2023/04/09 08:08:24;;;;;;;25.02;18.88;;;;;;;;;;5014358;28;20026;-54
2023/04/09 08:10:50;;;;;;;24.33;18.65;;;;;;;;;;5014387;28;20026;-54
2023/04/09 08:13:15;;;;;;;25.92;19.38;;;;;;;;;;5014026;28;20026;-54
2023/04/09 08:15:41;;;;;;;24.00;18.45;;;;;;;;;;5014316;28;20376;-54
2023/04/09 08:18:06;;;;;;;26.95;18.42;;;;;;;;;;5014316;28;20049;-53
2023/04/09 08:20:32;;;;;;;26.60;18.73;;;;;;;;;;5012813;28;20018;-54
2023/04/09 08:22:58;;;;;;;26.67;19.55;;;;;;;;;;5014236;28;20041;-54
2023/04/09 08:25:23;;;;;;;27.27;19.60;;;;;;;;;;5014223;28;20034;-54
2023/04/09 08:27:48;;;;;;;26.17;20.13;;;;;;;;;;5013897;28;20109;-53
2023/04/09 08:30:14;;;;;;;24.00;18.70;;;;;;;;;;5013609;28;20441;-54
2023/04/09 08:32:40;;;;;;;27.45;18.90;;;;;;;;;;5014045;28;20030;-53
2023/04/09 08:35:05;;;;;;;24.27;18.58;;;;;;;;;;5019529;28;20030;-54
2023/04/09 08:37:32;;;;;;;24.38;18.33;;;;;;;;;;5020601;28;20069;-53
2023/04/09 08:39:57;;;;;;;24.08;19.33;;;;;;;;;;5020877;28;20035;-54
2023/04/09 08:42:23;;;;;;;24.15;18.35;;;;;;;;;;5020590;28;20022;-54
2023/04/09 08:44:49;;;;;;;26.73;19.00;;;;;;;;;;5020531;28;20026;-54
2023/04/09 08:47:14;;;;;;;26.77;19.40;;;;;;;;;;5020543;28;20400;-53
2023/04/09 08:49:40;;;;;;;23.63;17.70;;;;;;;;;;5020541;28;20116;-54
2023/04/09 08:52:06;;;;;;;22.98;17.92;;;;;;;;;;5020154;28;20018;-54
2023/04/09 08:54:31;;;;;;;26.35;19.60;;;;;;;;;;5020373;28;20044;-53
2023/04/09 08:56:57;;;;;;;24.10;18.65;;;;;;;;;;5020459;28;20066;-54
2023/04/09 08:59:22;;;;;;;25.23;18.58;;;;;;;;;;5020146;28;20434;-54
2023/04/09 09:01:52;;;;;;;25.45;18.67;;;;;;;;;;5002527;28;20034;-54
2023/04/09 09:04:18;;;;;;;24.20;18.48;;;;;;;;;;5020030;28;20365;-54
2023/04/09 09:06:44;;;;;;;24.50;18.58;;;;;;;;;;5020062;28;20040;-54
2023/04/09 09:09:11;;;;;;;27.70;19.90;;;;;;;;;;5020577;28;20033;-53
2023/04/09 09:11:37;;;;;;;27.23;19.63;;;;;;;;;;5020050;28;20229;-54
2023/04/09 09:14:04;;;;;;;25.27;19.02;;;;;;;;;;5020075;28;20026;-54
2023/04/09 09:16:31;;;;;;;25.95;19.95;;;;;;;;;;5020294;28;20030;-53
2023/04/09 09:18:57;;;;;;;26.50;19.85;;;;;;;;;;5019990;28;20068;-53
2023/04/09 09:21:23;;;;;;;28.88;19.35;;;;;;;;;;5020527;28;20025;-54
2023/04/09 09:23:49;;;;;;;25.20;19.38;;;;;;;;;;5020207;28;20034;-54
2023/04/09 09:26:21;;;;;;;26.55;19.65;;;;;;;;;;5020228;28;20456;-54
2023/04/09 09:28:47;;;;;;;28.23;20.60;;;;;;;;;;5020233;28;20109;-54
2023/04/09 09:31:13;;;;;;;27.80;19.60;;;;;;;;;;5019690;28;20497;-54
2023/04/09 09:33:39;;;;;;;27.50;20.38;;;;;;;;;;5020132;28;20022;-54
2023/04/09 09:36:04;;;;;;;22.35;17.17;;;;;;;;;;5019852;28;20034;-54
2023/04/09 09:38:30;;;;;;;28.33;21.27;;;;;;;;;;5019779;28;20026;-54
2023/04/09 09:40:55;;;;;;;26.73;19.80;;;;;;;;;;5018940;28;20073;-54
2023/04/09 09:43:21;;;;;;;32.10;24.67;;;;;;;;;;5019998;28;20026;-53
2023/04/09 09:45:47;;;;;;;37.92;28.67;;;;;;;;;;5017397;28;20151;-54
2023/04/09 09:48:13;;;;;;;37.22;25.50;;;;;;;;;;5016666;28;20475;-53
2023/04/09 09:50:40;;;;;;;33.30;24.98;;;;;;;;;;5016609;28;20041;-53
2023/04/09 09:53:06;;;;;;;33.47;24.35;;;;;;;;;;5016510;28;20057;-53
2023/04/09 09:55:32;;;;;;;31.40;22.42;;;;;;;;;;5016464;28;20065;-54
2023/04/09 09:58:00;;;;;;;29.65;20.88;;;;;;;;;;5015884;28;20061;-54
2023/04/09 10:00:27;;;;;;;33.22;23.13;;;;;;;;;;5016432;28;20068;-54
2023/04/09 10:03:04;;;;;;;32.00;24.42;;;;;;;;;;5016513;28;20092;-53
2023/04/09 10:05:29;;;;;;;42.25;27.70;;;;;;;;;;5016615;28;20072;-54
2023/04/09 10:07:56;;;;;;;39.55;26.35;;;;;;;;;;5016556;28;20061;-54
2023/04/09 10:10:22;;;;;;;35.30;24.95;;;;;;;;;;5016520;28;20021;-54
2023/04/09 10:12:48;;;;;;;42.67;26.77;;;;;;;;;;5016444;28;20026;-54
2023/04/09 10:15:13;;;;;;;40.20;26.65;;;;;;;;;;5016441;28;20461;-54
2023/04/09 10:17:39;;;;;;;41.97;26.70;;;;;;;;;;5016341;28;20022;-53
2023/04/09 10:20:05;;;;;;;39.85;26.67;;;;;;;;;;5016097;28;20022;-54
2023/04/09 10:22:31;;;;;;;41.47;27.48;;;;;;;;;;5016008;28;20041;-53
2023/04/09 10:24:57;;;;;;;33.05;23.90;;;;;;;;;;5016207;28;20064;-54
2023/04/09 10:27:24;;;;;;;33.65;24.02;;;;;;;;;;5016213;28;20038;-53
2023/04/09 10:29:53;;;;;;;37.33;26.15;;;;;;;;;;5014731;28;20053;-54
2023/04/09 10:32:25;;;;;;;46.05;29.95;;;;;;;;;;5015616;28;20485;-54
2023/04/09 10:34:50;;;;;;;37.10;25.48;;;;;;;;;;5015725;28;20481;-54
2023/04/09 10:37:23;;;;;;;41.42;27.45;;;;;;;;;;5015956;28;20097;-54
2023/04/09 10:39:50;;;;;;;45.50;28.98;;;;;;;;;;5015959;28;20479;-54
2023/04/09 10:42:26;;;;;;;33.75;23.63;;;;;;;;;;5063306;23;20053;-53
2023/04/09 10:45:03;;;;;;;29.00;20.75;;;;;;;;;;5075306;28;20020;-53
2023/04/09 10:47:33;;;;;;;35.08;25.52;;;;;;;;;;5075558;28;20033;-54
2023/04/09 10:50:12;;;;;;;29.55;21.42;;;;;;;;;;5075505;28;20017;-54
2023/04/09 10:52:39;;;;;;;30.15;22.25;;;;;;;;;;5075393;28;20128;-54
2023/04/09 10:55:05;;;;;;;26.02;20.08;;;;;;;;;;5075711;28;20425;-54
2023/04/09 10:57:31;;;;;;;25.50;18.27;;;;;;;;;;5074185;28;20082;-54
2023/04/09 10:59:56;;;;;;;25.67;18.70;;;;;;;;;;5075196;28;20032;-54
2023/04/09 11:02:36;;;;;;;26.15;18.52;;;;;;;;;;5074945;28;20097;-54
2023/04/09 11:05:16;;;;;;;22.08;17.17;;;;;;;;;;5075230;28;20025;-54
2023/04/09 11:07:53;;;;;;;20.40;14.98;;;;;;;;;;5075220;28;20037;-54
2023/04/09 11:10:19;;;;;;;16.42;12.48;;;;;;;;;;5075112;28;20111;-54
2023/04/09 11:12:45;;;;;;;21.65;15.45;;;;;;;;;;5075252;28;20067;-54
2023/04/09 11:15:14;;;;;;;21.85;16.05;;;;;;;;;;5075034;28;20124;-54
2023/04/09 11:17:40;;;;;;;20.30;15.60;;;;;;;;;;5074942;28;20409;-54
2023/04/09 11:20:06;;;;;;;18.80;14.00;;;;;;;;;;5056949;28;20031;-54
2023/04/09 11:22:32;;;;;;;17.65;13.60;;;;;;;;;;5074825;28;20066;-54
2023/04/09 11:24:57;;;;;;;15.50;12.25;;;;;;;;;;5075070;28;20036;-54
2023/04/09 11:27:22;;;;;;;11.68;9.90;;;;;;;;;;5074474;28;20032;-53
2023/04/09 11:29:48;;;;;;;10.45;9.35;;;;;;;;;;5074722;28;20047;-54
2023/04/09 11:32:13;;;;;;;13.40;10.82;;;;;;;;;;5074599;28;20027;-54
2023/04/09 11:34:38;;;;;;;11.48;10.20;;;;;;;;;;5074357;28;20032;-54
2023/04/09 11:37:08;;;;;;;9.43;8.52;;;;;;;;;;5075374;28;20023;-54
2023/04/09 11:39:36;;;;;;;9.65;7.65;;;;;;;;;;5074240;28;20021;-54
2023/04/09 11:42:01;;;;;;;8.63;7.53;;;;;;;;;;5074063;28;20048;-54
2023/04/09 11:44:27;;;;;;;76.40;29.80;;;;;;;;;;5074177;28;20098;-54
2023/04/09 11:46:52;;;;;;;11.48;9.07;;;;;;;;;;5074307;28;20079;-53
2023/04/09 11:49:17;;;;;;;12.05;9.05;;;;;;;;;;5074365;28;20441;-54
2023/04/09 11:51:43;;;;;;;17.50;10.93;;;;;;;;;;5073969;28;20032;-54
2023/04/09 11:54:10;;;;;;;22.52;12.60;;;;;;;;;;5074325;28;20516;-54
2023/04/09 11:56:35;;;;;;;99.00;42.22;;;;;;;;;;5074260;28;20485;-53
2023/04/09 11:59:01;;;;;;;99.70;38.20;;;;;;;;;;5074217;28;20068;-54
2023/04/09 12:01:31;;;;;;;25.70;15.50;;;;;;;;;;5074203;28;20083;-54
2023/04/09 12:03:56;;;;;;;11.00;8.88;;;;;;;;;;5074198;28;20156;-53
2023/04/09 12:06:23;;;;;;;10.52;8.00;;;;;;;;;;5073833;28;20032;-54
2023/04/09 12:08:52;;;;;;;8.23;6.90;;;;;;;;;;5073991;28;20339;-54
2023/04/09 12:11:17;;;;;;;8.20;7.32;;;;;;;;;;5074275;28;20086;-53
2023/04/09 12:13:44;;;;;;;7.78;7.03;;;;;;;;;;5074315;28;20029;-54
2023/04/09 12:16:13;;;;;;;8.70;7.85;;;;;;;;;;5056178;28;20032;-54
2023/04/09 12:18:38;;;;;;;7.28;6.57;;;;;;;;;;5073880;28;20063;-53
2023/04/09 12:21:04;;;;;;;6.72;6.13;;;;;;;;;;5073982;28;20082;-54
2023/04/09 12:23:30;;;;;;;29.63;17.80;;;;;;;;;;5073930;28;20545;-54
2023/04/09 12:25:59;;;;;;;8.93;8.07;;;;;;;;;;5073900;28;20111;-61
2023/04/09 12:28:25;;;;;;;8.18;7.38;;;;;;;;;;5073607;28;20042;-61
2023/04/09 12:30:50;;;;;;;12.13;9.23;;;;;;;;;;5074143;28;20032;-61
2023/04/09 12:33:15;;;;;;;12.63;9.52;;;;;;;;;;5073754;28;20028;-61
2023/04/09 12:35:41;;;;;;;16.88;10.90;;;;;;;;;;5073819;28;20024;-61
2023/04/09 12:38:06;;;;;;;9.82;8.05;;;;;;;;;;5073774;28;20056;-61
2023/04/09 12:40:31;;;;;;;7.38;6.68;;;;;;;;;;5073475;28;20029;-61
2023/04/09 12:42:57;;;;;;;7.07;6.47;;;;;;;;;;5073299;28;20042;-61
2023/04/09 12:45:22;;;;;;;7.68;6.78;;;;;;;;;;5073432;28;20036;-61
2023/04/09 12:47:47;;;;;;;7.15;6.45;;;;;;;;;;5073417;28;20032;-61
2023/04/09 12:50:13;;;;;;;6.00;5.50;;;;;;;;;;5073372;28;20458;-61
2023/04/09 12:52:44;;;;;;;6.47;5.90;;;;;;;;;;5073324;28;20033;-62
2023/04/09 12:55:10;;;;;;;7.03;6.32;;;;;;;;;;5073674;28;20529;-61
2023/04/09 12:57:36;;;;;;;7.53;6.78;;;;;;;;;;5073336;28;20119;-61
2023/04/09 13:00:03;;;;;;;8.25;7.47;;;;;;;;;;5073627;28;20056;-61
2023/04/09 13:02:29;;;;;;;8.40;7.60;;;;;;;;;;5073556;28;20043;-61
2023/04/09 13:04:54;;;;;;;11.93;10.07;;;;;;;;;;5073552;28;20033;-61
2023/04/09 13:07:19;;;;;;;82.35;44.53;;;;;;;;;;5073225;28;20043;-61
2023/04/09 13:09:45;;;;;;;38.67;26.00;;;;;;;;;;5073794;28;20055;-61
2023/04/09 13:12:11;;;;;;;11.20;9.63;;;;;;;;;;5073412;28;20375;-61
2023/04/09 13:14:40;;;;;;;27.65;23.08;;;;;;;;;;5073173;28;20024;-61
2023/04/09 13:17:05;;;;;;;9.20;8.38;;;;;;;;;;5073397;28;20379;-61
2023/04/09 13:19:31;;;;;;;7.90;7.07;;;;;;;;;;5073421;28;20113;-61
2023/04/09 13:21:56;;;;;;;9.73;8.27;;;;;;;;;;5075822;28;20033;-61
2023/04/09 13:24:21;;;;;;;9.18;8.38;;;;;;;;;;5077427;28;20055;-61
2023/04/09 13:26:47;;;;;;;8.57;7.45;;;;;;;;;;5076787;28;20364;-61
2023/04/09 13:29:12;;;;;;;7.88;7.18;;;;;;;;;;5076732;28;20020;-61
2023/04/09 13:31:37;;;;;;;7.85;7.15;;;;;;;;;;5076910;28;20035;-61
2023/04/09 13:34:03;;;;;;;11.40;10.20;;;;;;;;;;5076921;28;20032;-61
2023/04/09 13:36:29;;;;;;;8.70;7.90;;;;;;;;;;5076468;28;20479;-61
2023/04/09 13:38:54;;;;;;;7.53;6.82;;;;;;;;;;5076578;28;20107;-61
2023/04/09 13:41:26;;;;;;;7.95;7.25;;;;;;;;;;5076883;28;20093;-61
2023/04/09 13:43:51;;;;;;;7.35;6.75;;;;;;;;;;5076485;28;20035;-62
2023/04/09 13:46:17;;;;;;;10.15;9.20;;;;;;;;;;5077555;28;20343;-61
2023/04/09 13:48:42;;;;;;;7.38;6.68;;;;;;;;;;5058480;28;20009;-61
2023/04/09 13:51:08;;;;;;;7.20;6.60;;;;;;;;;;5076648;28;20147;-61
2023/04/09 13:53:33;;;;;;;8.27;7.47;;;;;;;;;;5076507;28;20035;-61
2023/04/09 13:55:58;;;;;;;15.98;12.77;;;;;;;;;;5076291;28;20455;-61
2023/04/09 13:58:24;;;;;;;9.60;7.78;;;;;;;;;;5076491;28;20418;-61
2023/04/09 14:00:50;;;;;;;8.18;7.38;;;;;;;;;;5058146;28;20039;-61
2023/04/09 14:03:15;;;;;;;10.07;8.77;;;;;;;;;;5076653;28;20024;-61
2023/04/09 14:05:40;;;;;;;14.05;10.32;;;;;;;;;;5076379;28;20443;-61
2023/04/09 14:08:06;;;;;;;10.80;8.55;;;;;;;;;;5075991;28;20090;-61
2023/04/09 14:10:32;;;;;;;11.60;9.85;;;;;;;;;;5076300;28;20028;-61
2023/04/09 14:12:57;;;;;;;15.25;11.48;;;;;;;;;;5076162;28;20029;-61
2023/04/09 14:15:23;;;;;;;37.58;23.48;;;;;;;;;;5076458;28;20027;-61
2023/04/09 14:17:50;;;;;;;81.93;42.10;;;;;;;;;;5075761;28;20040;-61
2023/04/09 14:20:17;;;;;;;44.35;25.52;;;;;;;;;;5076076;28;20162;-53